Time;durP1;ratioP1;P1;durP2;ratioP2;P2;SDS_P1;SDS_P2;PMS_P1;PMS_P2;Temp;Humidity;BMP_temperature;BMP_pressure;BME280_temperature;BME280_humidity;BME280_pressure;Samples;Min_cycle;Max_cycle;Signal;HPM_P1;HPM_P2
2021/03/30 00:01:08;;;;;;;27.67;15.13;;;;;;;11.54;75.17;100968.00;5098501;28;20123;-45
2021/03/30 00:03:34;;;;;;;28.63;16.77;;;;;;;11.52;75.17;100961.88;5098448;28;20059;-45
2021/03/30 00:06:00;;;;;;;35.17;17.95;;;;;;;11.50;75.81;100969.75;5097367;28;20093;-45
2021/03/30 00:08:26;;;;;;;35.83;17.77;;;;;;;11.50;75.48;100963.63;5098508;28;20106;-45
2021/03/30 00:10:52;;;;;;;33.05;17.65;;;;;;;11.52;75.50;100967.13;5098715;28;20132;-45
2021/03/30 00:13:18;;;;;;;38.70;18.23;;;;;;;11.50;75.37;100972.38;5098218;28;20357;-45
2021/03/30 00:15:43;;;;;;;30.85;18.63;;;;;;;11.50;75.15;100966.25;5097927;28;20056;-45
2021/03/30 00:18:09;;;;;;;34.40;18.50;;;;;;;11.51;75.19;100966.25;5097931;28;20048;-45
2021/03/30 00:20:35;;;;;;;36.13;19.50;;;;;;;11.49;75.11;100957.53;5097879;28;20079;-45
2021/03/30 00:23:01;;;;;;;39.60;19.05;;;;;;;11.45;75.42;100958.44;5097971;28;20114;-45
2021/03/30 00:25:27;;;;;;;35.13;18.90;;;;;;;11.49;75.24;100956.66;5097810;28;20094;-45
2021/03/30 00:27:52;;;;;;;31.67;17.05;;;;;;;11.45;75.13;100958.44;5097704;28;20058;-45
2021/03/30 00:30:19;;;;;;;30.73;17.13;;;;;;;11.39;75.55;100963.75;5097743;28;20043;-45
2021/03/30 00:32:44;;;;;;;29.08;16.77;;;;;;;11.41;75.43;100959.38;5098219;28;20064;-45
2021/03/30 00:35:10;;;;;;;27.90;15.82;;;;;;;11.39;75.50;100961.13;5097964;28;20072;-45
2021/03/30 00:37:36;;;;;;;27.73;17.10;;;;;;;11.33;75.92;100969.06;5097141;28;20040;-45
2021/03/30 00:40:06;;;;;;;30.08;16.13;;;;;;;11.35;76.22;100970.78;5097774;28;20102;-45
2021/03/30 00:42:32;;;;;;;26.90;16.13;;;;;;;11.34;76.05;100974.31;5097697;28;20048;-45
2021/03/30 00:44:58;;;;;;;30.30;15.68;;;;;;;11.35;75.95;100968.16;5097477;28;20430;-45
2021/03/30 00:47:24;;;;;;;28.95;16.60;;;;;;;11.35;75.57;100969.94;5097644;28;20062;-45
2021/03/30 00:49:50;;;;;;;27.38;17.30;;;;;;;11.34;75.67;100963.81;5097584;28;20052;-45
2021/03/30 00:52:17;;;;;;;26.58;16.35;;;;;;;11.31;75.92;100974.34;5096483;28;20346;-45
2021/03/30 00:55:01;;;;;;;26.95;16.05;;;;;;;11.31;75.83;100966.47;5096738;28;20048;-45
2021/03/30 00:57:29;;;;;;;25.75;15.88;;;;;;;11.30;76.07;100959.47;5096381;28;20040;-45
2021/03/30 00:59:55;;;;;;;33.05;18.70;;;;;;;11.28;76.14;100962.97;5096546;28;20059;-45
2021/03/30 01:02:20;;;;;;;35.22;20.08;;;;;;;11.24;76.49;100959.50;5097359;28;20052;-45
2021/03/30 01:04:46;;;;;;;38.42;21.45;;;;;;;11.28;76.38;100969.13;5096230;28;20066;-45
2021/03/30 01:07:12;;;;;;;47.47;24.13;;;;;;;11.23;76.87;100961.28;5097577;28;20055;-45
2021/03/30 01:10:25;;;;;;;43.50;22.40;;;;;;;11.27;76.32;100966.50;5079181;28;20052;-45
2021/03/30 01:13:22;;;;;;;48.45;23.27;;;;;;;11.19;77.06;100966.56;5088223;28;20353;-45
2021/03/30 01:15:54;;;;;;;36.00;20.35;;;;;;;11.23;76.45;100969.16;5095977;28;20446;-45
2021/03/30 01:18:26;;;;;;;41.92;21.10;;;;;;;11.20;77.03;100955.19;5096187;28;20047;-45
2021/03/30 01:21:05;;;;;;;39.63;20.42;;;;;;;11.21;76.44;100962.16;5095990;28;20358;-45
2021/03/30 01:23:59;;;;;;;35.58;19.55;;;;;;;11.19;76.87;100964.81;5096222;28;20047;-45
2021/03/30 01:26:25;;;;;;;35.53;19.17;;;;;;;11.19;76.66;100964.81;5096910;28;20044;-45
2021/03/30 01:29:00;;;;;;;38.30;19.20;;;;;;;11.20;76.90;100968.31;5096907;28;20100;-45
2021/03/30 01:31:26;;;;;;;36.05;18.77;;;;;;;11.20;76.71;100961.31;5096566;28;20353;-45
2021/03/30 01:33:52;;;;;;;36.35;20.02;;;;;;;11.16;76.78;100956.97;5079369;28;20342;-45
2021/03/30 01:36:19;;;;;;;37.00;19.60;;;;;;;11.21;76.64;100956.91;5097328;28;20067;-45
2021/03/30 01:38:45;;;;;;;39.38;20.67;;;;;;;11.20;76.66;100953.44;5095876;28;20048;-45
2021/03/30 01:41:10;;;;;;;34.33;18.35;;;;;;;11.23;76.41;100952.53;5096663;28;20067;-44
2021/03/30 01:43:36;;;;;;;34.15;17.70;;;;;;;11.17;76.88;100950.84;5078654;28;20373;-45
2021/03/30 01:46:02;;;;;;;36.90;20.52;;;;;;;11.19;76.61;100950.84;5096317;28;20069;-45
2021/03/30 01:48:27;;;;;;;36.88;19.48;;;;;;;11.18;76.39;100954.34;5095205;28;20047;-44
2021/03/30 01:50:53;;;;;;;31.40;18.58;;;;;;;11.16;76.71;100951.72;5078915;28;20093;-44
2021/03/30 01:53:20;;;;;;;30.15;17.55;;;;;;;11.13;76.75;100948.28;5078767;28;20449;-45
2021/03/30 01:55:46;;;;;;;29.40;17.10;;;;;;;11.14;76.31;100945.63;5095636;28;20083;-44
2021/03/30 01:58:11;;;;;;;29.67;16.90;;;;;;;11.11;76.42;100945.66;5096246;28;20036;-45
2021/03/30 02:00:37;;;;;;;30.48;17.52;;;;;;;11.08;75.90;100939.56;5095609;28;20113;-45
2021/03/30 02:03:05;;;;;;;27.48;16.90;;;;;;;10.92;76.37;100917.88;5078559;28;20040;-45
2021/03/30 02:05:31;;;;;;;32.08;17.88;;;;;;;10.98;76.95;100938.78;5078826;28;20051;-45
2021/03/30 02:07:58;;;;;;;30.98;16.55;;;;;;;10.97;76.86;100940.53;5078825;28;20040;-44
2021/03/30 02:10:46;;;;;;;28.33;16.05;;;;;;;10.94;76.87;100942.31;5061899;28;20063;-45
2021/03/30 02:13:20;;;;;;;28.83;16.65;;;;;;;10.93;77.00;100948.47;5095589;28;20052;-45
2021/03/30 02:15:46;;;;;;;30.83;16.60;;;;;;;10.90;77.01;100946.72;5095519;28;20052;-45
2021/03/30 02:18:16;;;;;;;28.55;15.65;;;;;;;10.93;77.24;100944.06;5095387;28;20047;-45
2021/03/30 02:21:02;;;;;;;28.83;15.43;;;;;;;10.92;76.71;100950.22;5078937;28;20052;-45
2021/03/30 02:23:28;;;;;;;26.00;14.70;;;;;;;10.85;76.89;100937.16;5095840;28;20130;-45
2021/03/30 02:25:57;;;;;;;26.38;14.60;;;;;;;10.83;76.63;100946.78;5095012;28;20442;-45
2021/03/30 02:28:25;;;;;;;31.10;15.68;;;;;;;10.73;77.02;100943.38;5078522;28;20483;-45
2021/03/30 02:30:51;;;;;;;27.92;14.40;;;;;;;10.66;76.78;100939.94;5094981;28;20377;-45
2021/03/30 02:33:19;;;;;;;26.80;14.65;;;;;;;10.63;76.91;100933.84;5095798;28;20127;-44
2021/03/30 02:35:45;;;;;;;27.90;15.20;;;;;;;10.53;76.59;100933.06;5096059;28;20071;-45
2021/03/30 02:38:11;;;;;;;27.00;15.02;;;;;;;10.51;76.51;100938.28;5078394;28;20415;-45
2021/03/30 02:40:37;;;;;;;27.00;15.20;;;;;;;10.43;76.81;100953.19;5095815;28;20044;-45
2021/03/30 02:43:02;;;;;;;22.38;13.73;;;;;;;10.33;77.26;100948.88;5078122;28;20044;-45
2021/03/30 02:45:29;;;;;;;26.65;14.18;;;;;;;10.29;77.55;100952.38;5095752;28;20048;-45
2021/03/30 02:47:57;;;;;;;26.58;14.63;;;;;;;10.27;76.99;100949.78;5078143;28;20060;-44
2021/03/30 02:50:23;;;;;;;26.80;14.68;;;;;;;10.20;77.02;100948.03;5094799;28;20119;-45
2021/03/30 02:52:49;;;;;;;29.42;18.02;;;;;;;10.12;77.21;100943.75;5094820;28;20115;-44
2021/03/30 02:55:15;;;;;;;34.28;21.88;;;;;;;10.06;77.15;100937.63;5078170;28;20044;-45
2021/03/30 02:57:41;;;;;;;37.67;26.85;;;;;;;10.00;77.17;100950.75;5095670;28;20061;-45
2021/03/30 03:00:11;;;;;;;35.42;25.70;;;;;;;9.97;76.97;100944.66;5097362;28;20055;-44
2021/03/30 03:02:36;;;;;;;29.83;21.00;;;;;;;9.87;77.31;100949.06;5098544;28;20090;-45
2021/03/30 03:05:03;;;;;;;28.00;17.33;;;;;;;9.81;77.54;100947.38;5098766;28;20048;-45
2021/03/30 03:07:28;;;;;;;29.63;17.45;;;;;;;9.76;77.54;100950.88;5098763;28;20445;-45
2021/03/30 03:09:54;;;;;;;31.00;16.73;;;;;;;9.68;77.73;100953.50;5098287;28;20056;-45
2021/03/30 03:12:20;;;;;;;29.02;15.68;;;;;;;9.59;78.66;100956.16;5098647;28;20052;-45
2021/03/30 03:14:45;;;;;;;25.52;15.20;;;;;;;9.57;78.68;100957.91;5064864;28;20423;-45
2021/03/30 03:17:11;;;;;;;31.85;17.42;;;;;;;9.49;78.99;100954.41;5081433;28;20105;-45
2021/03/30 03:19:37;;;;;;;27.60;17.15;;;;;;;9.44;79.16;100951.81;5099138;28;20036;-45
2021/03/30 03:22:03;;;;;;;29.67;18.10;;;;;;;9.44;79.21;100950.97;5098219;28;20040;-45
2021/03/30 03:24:29;;;;;;;33.88;20.55;;;;;;;9.36;79.38;100951.84;5098720;28;20052;-45
2021/03/30 03:26:55;;;;;;;31.13;18.55;;;;;;;9.33;80.11;100964.06;5098355;28;20430;-45
2021/03/30 03:29:21;;;;;;;27.70;18.05;;;;;;;9.31;80.44;100965.81;5081240;28;20204;-45
2021/03/30 03:31:47;;;;;;;33.50;20.02;;;;;;;9.33;79.76;100964.94;5099162;28;20120;-45
2021/03/30 03:34:17;;;;;;;31.77;20.00;;;;;;;9.36;79.94;100966.69;5098181;28;20036;-45
2021/03/30 03:36:44;;;;;;;36.40;20.65;;;;;;;9.34;79.65;100973.66;5098765;28;20054;-45
2021/03/30 03:39:11;;;;;;;30.13;18.90;;;;;;;9.34;79.56;100964.06;5098741;28;20051;-45
2021/03/30 03:41:37;;;;;;;32.72;21.23;;;;;;;9.25;80.27;100971.91;5098674;28;20453;-45
2021/03/30 03:44:03;;;;;;;33.95;20.88;;;;;;;9.26;80.47;100968.44;5098660;28;20056;-45
2021/03/30 03:46:29;;;;;;;33.28;19.27;;;;;;;9.28;80.33;100966.66;5098650;28;20448;-45
2021/03/30 03:48:56;;;;;;;29.42;17.45;;;;;;;9.31;80.06;100969.28;5098568;28;20051;-45
2021/03/30 03:51:21;;;;;;;40.03;21.30;;;;;;;9.28;80.63;100969.28;5098541;28;20085;-45
2021/03/30 03:53:49;;;;;;;30.55;17.73;;;;;;;9.35;80.16;100967.53;5080801;28;20040;-45
2021/03/30 03:56:16;;;;;;;31.50;18.13;;;;;;;9.38;80.12;100966.66;5080932;28;20036;-45
2021/03/30 03:58:47;;;;;;;38.00;18.83;;;;;;;9.38;80.23;100979.72;5097794;28;20052;-45
2021/03/30 04:01:25;;;;;;;35.08;19.52;;;;;;;9.39;80.31;100971.88;5097700;28;20040;-44
2021/03/30 04:03:53;;;;;;;28.67;18.08;;;;;;;9.39;80.04;100978.84;5097421;28;20068;-45
2021/03/30 04:06:21;;;;;;;33.97;17.70;;;;;;;9.40;80.16;100978.00;5097676;28;20051;-45
2021/03/30 04:08:51;;;;;;;28.85;17.02;;;;;;;9.41;79.73;100984.97;5098016;28;20044;-45
2021/03/30 04:11:18;;;;;;;33.35;18.17;;;;;;;9.41;79.45;100983.22;5080350;28;20056;-45
2021/03/30 04:13:45;;;;;;;31.98;18.83;;;;;;;9.43;79.34;100984.09;5097427;28;20059;-45
2021/03/30 04:16:10;;;;;;;26.13;16.08;;;;;;;9.43;79.34;100972.78;5098282;28;20051;-45
2021/03/30 04:18:39;;;;;;;29.98;18.40;;;;;;;9.48;79.33;100978.84;5098016;28;20505;-45
2021/03/30 04:21:05;;;;;;;30.17;17.95;;;;;;;9.47;79.94;100982.34;5097302;28;20055;-45
2021/03/30 04:23:32;;;;;;;30.35;17.00;;;;;;;9.52;79.81;100976.22;5080207;28;20040;-45
2021/03/30 04:25:58;;;;;;;30.17;17.73;;;;;;;9.55;79.93;100983.19;5097236;28;20101;-45
2021/03/30 04:28:24;;;;;;;33.45;17.52;;;;;;;9.57;80.03;100974.47;5097784;28;20039;-45
2021/03/30 04:30:50;;;;;;;33.80;18.58;;;;;;;9.63;80.02;100977.94;5098020;28;20036;-45
2021/03/30 04:33:15;;;;;;;34.85;18.63;;;;;;;9.66;79.74;100977.94;5097600;28;20083;-45
2021/03/30 04:35:41;;;;;;;31.92;19.02;;;;;;;9.71;79.61;100986.63;5097679;28;20044;-56
2021/03/30 04:38:07;;;;;;;34.55;19.25;;;;;;;9.74;79.77;100982.25;5097894;28;20055;-56
2021/03/30 04:40:33;;;;;;;34.60;19.45;;;;;;;9.75;79.63;100980.50;5097578;28;20048;-56
2021/03/30 04:42:58;;;;;;;35.28;21.67;;;;;;;9.75;80.00;100984.03;5098052;28;20180;-57
2021/03/30 04:45:24;;;;;;;35.92;22.05;;;;;;;9.77;79.78;100984.00;5098019;28;20333;-56
2021/03/30 04:47:50;;;;;;;34.15;21.48;;;;;;;9.73;80.37;100996.22;5097639;28;20486;-57
2021/03/30 04:50:16;;;;;;;32.10;20.65;;;;;;;9.72;80.81;100997.09;5096683;28;20411;-56
2021/03/30 04:52:42;;;;;;;37.45;20.88;;;;;;;9.72;81.06;101001.47;5096616;28;20430;-56
2021/03/30 04:55:07;;;;;;;32.40;18.63;;;;;;;9.76;80.66;101006.69;5096370;28;20069;-57
2021/03/30 04:57:33;;;;;;;32.05;18.95;;;;;;;9.85;80.48;101011.03;5096310;28;20457;-57
2021/03/30 04:59:59;;;;;;;29.73;17.92;;;;;;;9.91;80.54;101005.78;5097221;28;20044;-56
2021/03/30 05:02:25;;;;;;;36.50;20.20;;;;;;;9.98;80.25;101004.00;5096489;28;20075;-57
2021/03/30 05:04:51;;;;;;;34.22;21.17;;;;;;;10.00;80.34;101010.97;5097345;28;20040;-56
2021/03/30 05:07:16;;;;;;;39.95;25.40;;;;;;;10.06;80.02;101008.31;5097068;28;20040;-56
2021/03/30 05:09:42;;;;;;;37.75;24.55;;;;;;;10.09;79.99;101015.28;5096877;28;20074;-57
2021/03/30 05:12:08;;;;;;;40.75;23.13;;;;;;;10.13;79.73;101013.53;5097236;28;20079;-56
2021/03/30 05:14:34;;;;;;;36.33;21.88;;;;;;;10.20;79.94;101016.09;5096755;28;20047;-57
2021/03/30 05:17:00;;;;;;;37.20;23.13;;;;;;;10.24;79.74;101019.63;5097118;28;20048;-57
2021/03/30 05:19:25;;;;;;;37.13;23.83;;;;;;;10.31;79.71;101023.09;5096500;28;20055;-57
2021/03/30 05:21:51;;;;;;;37.60;23.35;;;;;;;10.39;79.51;101018.69;5096232;28;20125;-57
2021/03/30 05:24:17;;;;;;;37.38;21.95;;;;;;;10.48;78.84;101018.63;5096389;28;20050;-57
2021/03/30 05:26:43;;;;;;;35.03;20.38;;;;;;;10.54;79.39;101026.47;5097214;28;20131;-57
2021/03/30 05:29:08;;;;;;;35.75;21.27;;;;;;;10.61;79.22;101032.53;5096624;28;20051;-57
2021/03/30 05:31:34;;;;;;;36.05;21.42;;;;;;;10.73;79.28;101027.22;5096629;28;20067;-57
2021/03/30 05:34:00;;;;;;;34.45;20.85;;;;;;;10.77;79.03;101035.06;5096533;28;20040;-57
2021/03/30 05:36:26;;;;;;;34.67;20.58;;;;;;;10.80;78.83;101036.78;5096543;28;20040;-57
2021/03/30 05:38:51;;;;;;;36.38;20.90;;;;;;;10.88;78.96;101040.22;5096766;28;20442;-57
2021/03/30 05:41:17;;;;;;;38.00;21.40;;;;;;;10.94;78.60;101041.94;5096762;28;20346;-57
2021/03/30 05:43:43;;;;;;;33.38;20.90;;;;;;;11.00;78.52;101041.88;5096715;28;20054;-57
2021/03/30 05:46:10;;;;;;;37.05;21.70;;;;;;;11.11;78.11;101039.19;5078975;28;20380;-57
2021/03/30 05:48:36;;;;;;;34.60;22.10;;;;;;;11.16;77.65;101038.28;5096621;28;20044;-57
2021/03/30 05:51:02;;;;;;;36.40;22.58;;;;;;;11.21;77.49;101044.34;5096651;28;20059;-57
2021/03/30 05:53:28;;;;;;;36.92;21.33;;;;;;;11.13;77.33;101032.19;5096341;28;20052;-45
2021/03/30 05:55:59;;;;;;;34.10;21.95;;;;;;;11.25;77.60;101052.19;5078900;28;20055;-45
2021/03/30 05:58:27;;;;;;;39.25;21.83;;;;;;;11.28;77.62;101050.44;5096293;28;20043;-45
2021/03/30 06:00:53;;;;;;;36.55;21.15;;;;;;;11.37;77.25;101050.31;5095648;28;20063;-45
2021/03/30 06:03:23;;;;;;;40.88;21.65;;;;;;;11.44;77.08;101053.78;5095381;28;20044;-45
2021/03/30 06:05:52;;;;;;;35.95;21.65;;;;;;;11.46;77.24;101058.13;5096042;28;20354;-45
2021/03/30 06:08:20;;;;;;;32.10;20.08;;;;;;;11.53;77.29;101058.06;5095889;28;20048;-45
2021/03/30 06:10:46;;;;;;;33.45;18.95;;;;;;;11.55;77.05;101049.31;5096367;28;20056;-45
2021/03/30 06:13:12;;;;;;;31.35;19.60;;;;;;;11.66;77.03;101059.69;5078688;28;20070;-45
2021/03/30 06:15:38;;;;;;;32.75;20.20;;;;;;;11.77;76.49;101056.97;5095911;28;20071;-45
2021/03/30 06:18:17;;;;;;;31.60;18.38;;;;;;;11.86;76.16;101056.88;5095362;28;20044;-45
2021/03/30 06:20:43;;;;;;;30.25;19.08;;;;;;;11.87;76.50;101063.91;5096567;28;20048;-45
2021/03/30 06:23:09;;;;;;;34.63;20.48;;;;;;;11.95;76.16;101063.81;5096211;28;20182;-45
2021/03/30 06:25:44;;;;;;;28.70;18.30;;;;;;;12.03;75.84;101068.09;5096198;28;20093;-45
2021/03/30 06:28:10;;;;;;;35.97;20.30;;;;;;;12.07;76.09;101067.16;5095870;28;20070;-45
2021/03/30 06:30:38;;;;;;;41.63;24.05;;;;;;;12.21;75.87;101074.00;5078537;28;20048;-45
2021/03/30 06:33:04;;;;;;;37.58;21.45;;;;;;;12.30;75.52;101073.91;5078526;28;20063;-45
2021/03/30 06:35:30;;;;;;;34.50;18.85;;;;;;;12.33;75.25;101084.38;5099175;28;20073;-45
2021/03/30 06:37:56;;;;;;;30.88;18.77;;;;;;;12.29;75.48;101078.28;5100142;28;20047;-45
2021/03/30 06:40:32;;;;;;;31.40;18.58;;;;;;;12.42;75.01;101079.03;5099931;28;20067;-45
2021/03/30 06:44:24;;;;;;;35.92;21.02;;;;;;;12.32;74.94;101085.28;5099872;28;20368;-45
2021/03/30 06:45:47;;;;;;;38.97;17.65;;;;;;;12.49;74.85;101085.94;5086034;28;20437;-45
2021/03/30 06:48:12;;;;;;;33.25;18.33;;;;;;;12.68;74.48;101088.31;5099762;28;20041;-45
2021/03/30 06:50:38;;;;;;;33.90;19.77;;;;;;;12.80;73.74;101094.28;5081965;28;20127;-45
2021/03/30 06:53:14;;;;;;;34.85;18.63;;;;;;;12.93;73.20;101101.97;5099614;28;20036;-45
2021/03/30 06:55:51;;;;;;;34.92;18.85;;;;;;;13.07;72.78;101102.66;5100287;28;20040;-45
2021/03/30 06:58:17;;;;;;;34.15;19.05;;;;;;;13.05;73.08;101100.03;5098950;28;20059;-46
2021/03/30 07:00:43;;;;;;;35.08;19.80;;;;;;;13.26;72.52;101096.28;5099204;28;20097;-46
2021/03/30 07:03:10;;;;;;;35.80;19.05;;;;;;;13.43;71.73;101101.25;5098855;28;20052;-45
2021/03/30 07:05:47;;;;;;;43.25;20.00;;;;;;;13.59;71.53;101101.88;5099631;28;20129;-46
2021/03/30 07:08:14;;;;;;;39.65;19.88;;;;;;;13.67;71.13;101096.47;5098288;28;20039;-46
2021/03/30 07:10:50;;;;;;;34.42;19.30;;;;;;;13.80;70.85;101096.22;5098715;28;20048;-45
2021/03/30 07:13:18;;;;;;;34.00;18.92;;;;;;;13.92;70.14;101095.13;5082039;28;20048;-45
2021/03/30 07:15:44;;;;;;;35.40;18.98;;;;;;;14.00;69.69;101093.22;5098274;28;20036;-46
2021/03/30 07:18:35;;;;;;;34.75;19.58;;;;;;;14.21;69.10;101093.72;5099200;28;20035;-46
2021/03/30 07:21:08;;;;;;;29.85;15.88;;;;;;;14.42;68.94;101092.41;5099123;28;20512;-46
2021/03/30 07:23:34;;;;;;;28.90;16.60;;;;;;;14.66;69.07;101089.28;5098681;28;20055;-46
2021/03/30 07:26:00;;;;;;;28.20;15.82;;;;;;;14.78;68.20;101085.50;5099279;28;20052;-46
2021/03/30 07:28:32;;;;;;;25.23;15.32;;;;;;;15.05;67.25;101093.72;5099214;28;20054;-46
2021/03/30 07:31:02;;;;;;;23.45;13.77;;;;;;;15.20;66.71;101095.97;5098233;28;20040;-46
2021/03/30 07:33:46;;;;;;;22.48;12.98;;;;;;;15.22;64.21;101101.22;5099209;28;20052;-46
2021/03/30 07:36:13;;;;;;;19.48;11.00;;;;;;;15.31;64.25;101101.88;5098275;28;20048;-46
2021/03/30 07:38:45;;;;;;;17.48;9.68;;;;;;;15.42;61.96;101098.97;5081436;28;20044;-46
2021/03/30 07:41:12;;;;;;;18.17;8.50;;;;;;;15.34;59.63;101104.44;5099858;28;20060;-46
2021/03/30 07:43:38;;;;;;;11.25;6.03;;;;;;;15.27;60.41;101108.09;5098728;28;20044;-46
2021/03/30 07:46:04;;;;;;;12.50;7.10;;;;;;;15.50;59.99;101114.59;5097450;28;20109;-46
2021/03/30 07:48:31;;;;;;;11.75;6.35;;;;;;;15.52;58.96;101112.81;5098288;28;20123;-46
2021/03/30 07:51:03;;;;;;;14.32;6.90;;;;;;;15.60;59.35;101106.44;5097907;28;20491;-46
2021/03/30 07:53:38;;;;;;;15.95;6.97;;;;;;;15.72;59.18;101107.06;5099360;28;20055;-46
2021/03/30 07:56:23;;;;;;;12.98;6.60;;;;;;;16.00;59.19;101107.19;5099016;28;20063;-46
2021/03/30 07:58:49;;;;;;;12.95;5.50;;;;;;;16.21;59.04;101108.38;5083566;28;20048;-46
2021/03/30 08:01:16;;;;;;;10.88;6.35;;;;;;;16.46;59.14;101111.19;5098637;28;20048;-46
2021/03/30 08:03:43;;;;;;;12.68;5.18;;;;;;;16.71;58.07;101114.88;5081059;28;20055;-46
2021/03/30 08:06:28;;;;;;;15.93;6.30;;;;;;;17.00;56.36;101121.09;5097441;28;20040;-46
2021/03/30 08:09:11;;;;;;;12.05;5.80;;;;;;;17.30;55.79;101116.59;5098220;28;20051;-47
2021/03/30 08:11:40;;;;;;;13.20;6.43;;;;;;;17.53;55.93;101126.44;5098467;28;20131;-47
2021/03/30 08:14:18;;;;;;;12.88;6.28;;;;;;;17.77;54.92;101126.56;5098002;28;20357;-47
2021/03/30 08:16:48;;;;;;;11.45;6.40;;;;;;;17.70;54.52;101120.56;5097100;28;20460;-47
2021/03/30 08:19:14;;;;;;;14.02;8.15;;;;;;;17.90;54.52;101126.09;5097971;28;20407;-47
2021/03/30 08:21:56;;;;;;;19.13;8.02;;;;;;;18.12;53.63;101128.00;5080578;28;20048;-47
2021/03/30 08:24:23;;;;;;;15.25;7.75;;;;;;;18.22;52.86;101130.25;5080849;28;20464;-47
2021/03/30 08:26:49;;;;;;;15.30;8.10;;;;;;;18.22;52.17;101132.91;5098087;28;20052;-47
2021/03/30 08:29:34;;;;;;;10.48;6.97;;;;;;;18.47;51.73;101126.72;5098010;28;20059;-47
2021/03/30 08:32:00;;;;;;;14.18;6.80;;;;;;;18.49;50.69;101131.94;5097961;28;20036;-47
2021/03/30 08:34:38;;;;;;;13.70;6.95;;;;;;;18.45;51.61;101134.72;5097605;28;20044;-47
2021/03/30 08:37:12;;;;;;;14.18;6.43;;;;;;;18.67;50.70;101139.25;5079987;28;20056;-47
2021/03/30 08:39:38;;;;;;;13.18;7.75;;;;;;;18.81;50.64;101128.97;5098245;28;20115;-47
2021/03/30 08:42:04;;;;;;;9.68;6.43;;;;;;;19.13;50.72;101135.69;5105148;28;20116;-47
2021/03/30 08:44:37;;;;;;;11.48;5.65;;;;;;;19.37;50.73;101125.91;5115983;28;20043;-47
2021/03/30 08:47:03;;;;;;;21.30;10.63;;;;;;;19.21;49.01;101126.59;5115360;28;20047;-47
2021/03/30 08:49:32;;;;;;;17.60;8.80;;;;;;;19.18;50.53;101124.06;5106847;28;20378;-47
2021/03/30 08:52:05;;;;;;;18.90;9.05;;;;;;;19.29;48.93;101120.00;5106168;28;20055;-47
2021/03/30 08:54:46;;;;;;;13.73;8.55;;;;;;;19.31;49.49;101126.13;5103520;28;20036;-47
2021/03/30 08:57:12;;;;;;;14.27;7.50;;;;;;;19.31;49.91;101122.63;5096001;28;20446;-47
2021/03/30 08:59:38;;;;;;;9.98;6.60;;;;;;;19.59;50.71;101125.00;5095727;28;20116;-47
2021/03/30 09:02:08;;;;;;;12.40;6.60;;;;;;;19.82;51.67;101116.06;5094942;28;20130;-47
2021/03/30 09:04:43;;;;;;;15.93;7.47;;;;;;;20.03;49.67;101120.47;5095341;28;20393;-47
2021/03/30 09:07:09;;;;;;;14.70;7.45;;;;;;;19.95;49.01;101114.63;5095329;28;20346;-47
2021/03/30 09:09:36;;;;;;;14.68;7.43;;;;;;;20.15;49.52;101124.41;5095012;28;20123;-47
2021/03/30 09:12:06;;;;;;;15.77;7.78;;;;;;;20.17;49.85;101127.84;5095030;28;20055;-47
2021/03/30 09:14:32;;;;;;;18.52;7.80;;;;;;;20.02;49.92;101123.22;5095223;28;20101;-47
2021/03/30 09:17:05;;;;;;;14.52;7.47;;;;;;;20.11;49.06;101121.94;5094904;28;20123;-47
2021/03/30 09:19:44;;;;;;;14.57;8.07;;;;;;;20.15;49.39;101126.19;5077271;28;20047;-47
2021/03/30 09:22:23;;;;;;;15.68;9.27;;;;;;;20.33;48.28;101124.50;5078975;28;20036;-47
2021/03/30 09:27:27;;;;;;;10.75;7.63;;;;;;;20.11;48.95;101112.16;5096112;28;20051;-47
2021/03/30 09:29:57;;;;;;;23.00;12.75;;;;;;;20.27;48.24;101113.19;5097035;28;20048;-47
2021/03/30 09:32:24;;;;;;;20.20;11.98;;;;;;;20.19;48.84;101117.16;5096038;28;20071;-47
2021/03/30 09:34:50;;;;;;;16.45;9.38;;;;;;;20.30;48.96;101106.88;5095642;28;20047;-47
2021/03/30 09:37:15;;;;;;;17.33;8.60;;;;;;;20.47;47.91;101114.09;5095883;28;20043;-47
2021/03/30 09:39:42;;;;;;;16.48;9.23;;;;;;;20.63;48.75;101111.63;5096215;28;20043;-47
2021/03/30 09:42:08;;;;;;;13.15;7.70;;;;;;;20.81;47.85;101100.13;5095865;28;20047;-47
2021/03/30 09:44:35;;;;;;;13.18;7.88;;;;;;;20.85;47.89;101104.38;5096798;28;20044;-47
2021/03/30 09:47:01;;;;;;;17.27;8.43;;;;;;;20.96;48.10;101115.38;5095795;28;20048;-47
2021/03/30 09:49:27;;;;;;;14.10;9.55;;;;;;;21.10;47.00;101106.72;5096625;28;20059;-47
2021/03/30 09:51:53;;;;;;;13.23;8.45;;;;;;;21.27;46.76;101100.56;5095742;28;20085;-48
2021/03/30 09:54:27;;;;;;;18.20;9.27;;;;;;;21.52;46.10;101102.06;5095282;28;20464;-48
2021/03/30 09:57:03;;;;;;;13.55;8.13;;;;;;;21.38;44.79;101098.25;5096291;28;20044;-47
2021/03/30 09:59:30;;;;;;;16.50;9.18;;;;;;;21.38;44.58;101100.06;5096565;28;20055;-47
2021/03/30 10:01:56;;;;;;;15.70;8.48;;;;;;;21.34;45.26;101090.47;5095271;28;20131;-47
2021/03/30 10:04:26;;;;;;;13.77;8.75;;;;;;;21.20;44.96;101094.69;5062097;28;20349;-47
2021/03/30 10:06:51;;;;;;;17.20;9.75;;;;;;;20.96;46.10;101096.75;5096198;28;20442;-47
2021/03/30 10:09:17;;;;;;;16.63;8.93;;;;;;;21.21;46.18;101095.53;5095484;28;20076;-47
2021/03/30 10:11:46;;;;;;;14.43;7.95;;;;;;;21.39;45.56;101086.69;5096057;28;20060;-47
2021/03/30 10:14:26;;;;;;;18.85;9.20;;;;;;;21.26;44.67;101096.19;5095380;28;20075;-47
2021/03/30 10:16:54;;;;;;;17.25;8.27;;;;;;;21.40;45.56;101087.53;5079110;28;20063;-48
2021/03/30 10:19:20;;;;;;;14.65;8.68;;;;;;;21.46;44.33;101088.09;5096417;28;20051;-47
2021/03/30 10:21:48;;;;;;;21.02;9.65;;;;;;;21.41;44.49;101091.91;5096591;28;20418;-47
2021/03/30 10:24:16;;;;;;;16.02;8.48;;;;;;;21.27;45.20;101092.56;5096182;28;20109;-47
2021/03/30 10:26:42;;;;;;;16.40;8.90;;;;;;;21.49;44.68;101087.09;5096184;28;20139;-47
2021/03/30 10:29:19;;;;;;;21.73;12.88;;;;;;;21.37;45.39;101083.22;5095372;28;20052;-67
2021/03/30 10:31:51;;;;;;;15.48;8.57;;;;;;;21.44;44.52;101089.09;5096595;28;20040;-66
2021/03/30 10:34:27;;;;;;;12.68;7.43;;;;;;;21.38;44.97;101089.41;5095321;28;20051;-66
2021/03/30 10:36:54;;;;;;;17.10;9.00;;;;;;;21.49;44.57;101076.41;5078183;28;20358;-67
2021/03/30 10:39:28;;;;;;;13.48;7.88;;;;;;;21.56;45.28;101071.63;5095869;28;20043;-67
2021/03/30 10:42:09;;;;;;;15.82;8.73;;;;;;;21.77;43.74;101077.66;5095805;28;20048;-66
2021/03/30 10:44:35;;;;;;;14.27;9.15;;;;;;;21.72;44.59;101074.38;5096250;28;20048;-67
2021/03/30 10:47:14;;;;;;;11.43;7.80;;;;;;;21.69;42.86;101078.06;5095670;28;20135;-66
2021/03/30 10:49:40;;;;;;;10.55;7.30;;;;;;;21.51;44.41;101063.00;5078144;28;20040;-67
2021/03/30 10:52:09;;;;;;;11.25;6.97;;;;;;;21.76;45.01;101060.81;5095992;28;20331;-67
2021/03/30 10:54:37;;;;;;;11.95;8.05;;;;;;;21.89;43.81;101064.56;5095629;28;20050;-66
2021/03/30 10:57:06;;;;;;;15.38;7.80;;;;;;;22.00;43.36;101060.44;5095670;28;20040;-66
2021/03/30 10:59:32;;;;;;;12.38;7.88;;;;;;;21.83;43.38;101064.88;5095896;28;20044;-66
2021/03/30 11:01:58;;;;;;;15.60;7.65;;;;;;;22.01;43.49;101064.88;5095887;28;20054;-67
2021/03/30 11:04:24;;;;;;;15.02;8.07;;;;;;;21.92;43.25;101053.72;5095592;28;20078;-67
2021/03/30 11:06:49;;;;;;;10.45;8.00;;;;;;;22.25;43.92;101054.72;5095598;28;20043;-67
2021/03/30 11:09:16;;;;;;;13.80;7.18;;;;;;;22.34;43.32;101065.75;5095289;28;20063;-67
2021/03/30 11:11:41;;;;;;;13.77;8.82;;;;;;;22.23;43.72;101056.59;5094835;28;20051;-68
2021/03/30 11:14:07;;;;;;;11.82;6.95;;;;;;;22.45;43.46;101056.28;5095623;28;20052;-67
2021/03/30 11:16:33;;;;;;;11.38;7.40;;;;;;;22.58;42.22;101052.00;5095493;28;20434;-67
2021/03/30 11:18:59;;;;;;;11.15;7.03;;;;;;;22.72;42.96;101057.44;5095739;28;20525;-67
2021/03/30 11:21:25;;;;;;;11.18;7.82;;;;;;;22.97;42.32;101048.91;5097273;28;20059;-67
2021/03/30 11:23:58;;;;;;;16.42;7.97;;;;;;;22.73;41.37;101048.47;5099110;28;20082;-67